Time;durP1;ratioP1;P1;durP2;ratioP2;P2;SDS_P1;SDS_P2;PMS_P1;PMS_P2;Temp;Humidity;BMP_temperature;BMP_pressure;BME280_temperature;BME280_humidity;BME280_pressure;Samples;Min_cycle;Max_cycle;Signal;HPM_P1;HPM_P2
2021/01/02 00:00:29;;;;;;;;;;;;;;;;;;2054497;28;7026;-62
2021/01/02 00:01:33;;;;;;;;;;;;;;;;;;2055190;28;7013;-62
2021/01/02 00:02:39;;;;;;;;;;;;;;;;;;2055934;28;7022;-63
2021/01/02 00:03:46;;;;;;;;;;;;;;;;;;2054424;28;7105;-62
2021/01/02 00:04:48;;;;;;;;;;;;;;;;;;2043872;28;7169;-64
2021/01/02 00:06:01;;;;;;;;;;;;;;;;;;2043727;28;7050;-62
2021/01/02 00:07:03;;;;;;;;;;;;;;;;;;2053613;28;8370;-62
2021/01/02 00:08:17;;;;;;;;;;;;;;;;;;2055428;28;7050;-62
2021/01/02 00:09:22;;;;;;;;;;;;;;;;;;2054432;28;7100;-62
2021/01/02 00:10:27;;;;;;;;;;;;;;;;;;2053454;28;7017;-63
2021/01/02 00:11:52;;;;;;;;;;;;;;;;;;2053238;28;7014;-64
2021/01/02 00:13:13;;;;;;;;;;;;;;;;;;2047894;28;7010;-61
2021/01/02 00:14:24;;;;;;;;;;;;;;;;;;2053630;28;8334;-62
2021/01/02 00:15:34;;;;;;;;;;;;;;;;;;2054218;28;7097;-61
2021/01/02 00:17:02;;;;;;;;;;;;;;;;;;2056486;28;7038;-62
2021/01/02 00:18:34;;;;;;;;;;;;;;;;;;2054725;28;7022;-64
2021/01/02 00:19:55;;;;;;;;;;;;;;;;;;2044813;28;7014;-62
2021/01/02 00:21:09;;;;;;;;;;;;;;;;;;2052886;28;7010;-62
2021/01/02 00:22:13;;;;;;;;;;;;;;;;;;2054155;28;7088;-63
2021/01/02 00:23:34;;;;;;;;;;;;;;;;;;2052480;28;7014;-63
2021/01/02 00:24:36;;;;;;;;;;;;;;;;;;2053568;28;7148;-61
2021/01/02 00:25:43;;;;;;;;;;;;;;;;;;2052233;28;7145;-63
2021/01/02 00:27:01;;;;;;;;;;;;;;;;;;2053624;28;7109;-62
2021/01/02 00:28:03;;;;;;;;;;;;;;;;;;2052626;28;7101;-61
2021/01/02 00:29:10;;;;;;;;;;;;;;;;;;2050359;28;7006;-64
2021/01/02 00:30:26;;;;;;;;;;;;;;;;;;2052828;28;7009;-61
2021/01/02 00:31:46;;;;;;;;;;;;;;;;;;2051576;28;7089;-60
2021/01/02 00:33:06;;;;;;;;;;;;;;;;;;2052995;28;8107;-62
2021/01/02 00:34:14;;;;;;;;;;;;;;;;;;2053687;28;7093;-62
2021/01/02 00:35:20;;;;;;;;;;;;;;;;;;2054181;28;8024;-62
2021/01/02 00:36:46;;;;;;;;;;;;;;;;;;2052586;28;7010;-62
2021/01/02 00:37:47;;;;;;;;;;;;;;;;;;2048638;28;7101;-62
2021/01/02 00:38:49;;;;;;;;;;;;;;;;;;2054366;28;7006;-62
2021/01/02 00:39:51;;;;;;;;;;;;;;;;;;2054013;28;7041;-63
2021/01/02 00:40:53;;;;;;;;;;;;;;;;;;2054037;28;7114;-61
2021/01/02 00:41:55;;;;;;;;;;;;;;;;;;2054274;28;7093;-63
2021/01/02 00:42:57;;;;;;;;;;;;;;;;;;2053160;28;7114;-63
2021/01/02 00:44:04;;;;;;;;;;;;;;;;;;2054123;28;7029;-62
2021/01/02 00:45:09;;;;;;;;;;;;;;;;;;2054401;28;7146;-63
2021/01/02 00:46:11;;;;;;;;;;;;;;;;;;2053258;28;7305;-63
2021/01/02 00:47:14;;;;;;;;;;;;;;;;;;2054479;28;7093;-63
2021/01/02 00:48:16;;;;;;;;;;;;;;;;;;2053099;28;7050;-61
2021/01/02 00:49:19;;;;;;;;;;;;;;;;;;2053085;28;7054;-64
2021/01/02 00:50:23;;;;;;;;;;;;;;;;;;2053988;28;7149;-63
2021/01/02 00:51:26;;;;;;;;;;;;;;;;;;2054524;28;7100;-61
2021/01/02 00:52:28;;;;;;;;;;;;;;;;;;2053657;28;7054;-61
2021/01/02 00:53:42;;;;;;;;;;;;;;;;;;2054162;28;8008;-63
2021/01/02 00:54:56;;;;;;;;;;;;;;;;;;2052519;28;7219;-63
2021/01/02 00:56:02;;;;;;;;;;;;;;;;;;2054087;28;7010;-62
2021/01/02 00:57:17;;;;;;;;;;;;;;;;;;2054311;28;7022;-62
2021/01/02 00:58:37;;;;;;;;;;;;;;;;;;2054445;28;7308;-63
2021/01/02 00:59:59;;;;;;;;;;;;;;;;;;2054219;28;7117;-63
2021/01/02 01:01:04;;;;;;;;;;;;;;;;;;2053349;28;7147;-63
2021/01/02 01:02:18;;;;;;;;;;;;;;;;;;2054043;28;7097;-63
2021/01/02 01:03:29;;;;;;;;;;;;;;;;;;2054007;28;7010;-62
2021/01/02 01:04:31;;;;;;;;;;;;;;;;;;2053903;28;7006;-63
2021/01/02 01:05:39;;;;;;;;;;;;;;;;;;2053603;28;7010;-65
2021/01/02 01:06:42;;;;;;;;;;;;;;;;;;2053565;28;7117;-63
2021/01/02 01:07:50;;;;;;;;;;;;;;;;;;2053356;28;7109;-61
2021/01/02 01:08:53;;;;;;;;;;;;;;;;;;2054266;28;7109;-63
2021/01/02 01:09:59;;;;;;;;;;;;;;;;;;2054499;28;7088;-64
2021/01/02 01:11:02;;;;;;;;;;;;;;;;;;2044296;28;7097;-63
2021/01/02 01:12:07;;;;;;;;;;;;;;;;;;2046023;28;7089;-63
2021/01/02 01:13:23;;;;;;;;;;;;;;;;;;2055372;28;7018;-63
2021/01/02 01:14:29;;;;;;;;;;;;;;;;;;2053993;28;7018;-63
2021/01/02 01:15:32;;;;;;;;;;;;;;;;;;2054735;28;7344;-62
2021/01/02 01:16:39;;;;;;;;;;;;;;;;;;2055187;28;7106;-63
2021/01/02 01:17:46;;;;;;;;;;;;;;;;;;2054615;28;7110;-61
2021/01/02 01:18:50;;;;;;;;;;;;;;;;;;2055045;28;7305;-62
2021/01/02 01:19:54;;;;;;;;;;;;;;;;;;2052705;28;7058;-63
2021/01/02 01:20:58;;;;;;;;;;;;;;;;;;2054237;28;7026;-64
2021/01/02 01:22:05;;;;;;;;;;;;;;;;;;2054839;28;7955;-62
2021/01/02 01:23:10;;;;;;;;;;;;;;;;;;2054706;28;7093;-62
2021/01/02 01:24:22;;;;;;;;;;;;;;;;;;2054307;28;7006;-62
2021/01/02 01:25:50;;;;;;;;;;;;;;;;;;2054489;28;7089;-64
2021/01/02 01:27:13;;;;;;;;;;;;;;;;;;2053857;28;7043;-62
2021/01/02 01:28:18;;;;;;;;;;;;;;;;;;2054440;28;7109;-63
2021/01/02 01:29:38;;;;;;;;;;;;;;;;;;2053543;28;7009;-62
2021/01/02 01:30:43;;;;;;;;;;;;;;;;;;2053519;28;7033;-63
2021/01/02 01:31:46;;;;;;;;;;;;;;;;;;2055788;28;7013;-63
2021/01/02 01:33:02;;;;;;;;;;;;;;;;;;2055650;28;7096;-63
2021/01/02 01:34:09;;;;;;;;;;;;;;;;;;2055442;28;7142;-63
2021/01/02 01:35:13;;;;;;;;;;;;;;;;;;2056461;28;7093;-63
2021/01/02 01:36:22;;;;;;;;;;;;;;;;;;2054419;28;7046;-63
2021/01/02 01:37:29;;;;;;;;;;;;;;;;;;2056089;28;7137;-62
2021/01/02 01:38:31;;;;;;;;;;;;;;;;;;2055602;28;7034;-62
2021/01/02 01:39:36;;;;;;;;;;;;;;;;;;2055879;28;7010;-62
2021/01/02 01:40:38;;;;;;;;;;;;;;;;;;2055954;28;7009;-63
2021/01/02 01:41:45;;;;;;;;;;;;;;;;;;2054719;28;7109;-63
2021/01/02 01:43:00;;;;;;;;;;;;;;;;;;2055767;28;7013;-61
2021/01/02 01:44:08;;;;;;;;;;;;;;;;;;2056111;28;7042;-64
2021/01/02 01:45:25;;;;;;;;;;;;;;;;;;2055890;28;7109;-63
2021/01/02 01:46:35;;;;;;;;;;;;;;;;;;2055517;28;7013;-62
2021/01/02 01:47:39;;;;;;;;;;;;;;;;;;2056007;28;7009;-60
2021/01/02 01:48:52;;;;;;;;;;;;;;;;;;2055330;28;7117;-63
2021/01/02 01:49:57;;;;;;;;;;;;;;;;;;2055767;28;7014;-62
2021/01/02 01:51:02;;;;;;;;;;;;;;;;;;2055504;28;7116;-62
2021/01/02 01:52:12;;;;;;;;;;;;;;;;;;2055692;28;7014;-63
2021/01/02 01:53:32;;;;;;;;;;;;;;;;;;2055575;28;7097;-62
2021/01/02 01:54:52;;;;;;;;;;;;;;;;;;2055077;28;7101;-62
2021/01/02 01:55:58;;;;;;;;;;;;;;;;;;2055897;28;7101;-61
2021/01/02 01:57:04;;;;;;;;;;;;;;;;;;2055701;28;7050;-62
2021/01/02 01:58:16;;;;;;;;;;;;;;;;;;2055959;28;7097;-63
2021/01/02 01:59:18;;;;;;;;;;;;;;;;;;2054774;28;7096;-64
2021/01/02 02:00:20;;;;;;;;;;;;;;;;;;2054989;28;7054;-64
2021/01/02 02:01:24;;;;;;;;;;;;;;;;;;2054925;28;7093;-63
2021/01/02 02:02:44;;;;;;;;;;;;;;;;;;2054022;28;7013;-63
2021/01/02 02:03:57;;;;;;;;;;;;;;;;;;2055430;28;7329;-63
2021/01/02 02:05:02;;;;;;;;;;;;;;;;;;2055397;28;7101;-62
2021/01/02 02:06:42;;;;;;;;;;;;;;;;;;2055566;28;7242;-62
2021/01/02 02:08:04;;;;;;;;;;;;;;;;;;2030632;29;7026;-61
2021/01/02 02:09:18;;;;;;;;;;;;;;;;;;2030262;29;7097;-64
2021/01/02 02:10:30;;;;;;;;;;;;;;;;;;2030598;29;7089;-64
2021/01/02 02:11:35;;;;;;;;;;;;;;;;;;2030045;29;7010;-62
2021/01/02 02:12:46;;;;;;;;;;;;;;;;;;2030838;29;7085;-61
2021/01/02 02:13:50;;;;;;;;;;;;;;;;;;2052018;28;7093;-63
2021/01/02 02:14:58;;;;;;;;;;;;;;;;;;2055626;28;7010;-62
2021/01/02 02:16:00;;;;;;;;;;;;;;;;;;2055733;28;7014;-64
2021/01/02 02:17:03;;;;;;;;;;;;;;;;;;2055983;28;7021;-62
2021/01/02 02:18:07;;;;;;;;;;;;;;;;;;2055711;28;7092;-62
2021/01/02 02:19:32;;;;;;;;;;;;;;;;;;2056090;28;7014;-63
2021/01/02 02:20:34;;;;;;;;;;;;;;;;;;2055111;28;7022;-61
2021/01/02 02:21:43;;;;;;;;;;;;;;;;;;2055917;28;7038;-63
2021/01/02 02:22:45;;;;;;;;;;;;;;;;;;2055336;28;8144;-61
2021/01/02 02:23:51;;;;;;;;;;;;;;;;;;2055244;28;7109;-63
2021/01/02 02:24:55;;;;;;;;;;;;;;;;;;2055423;28;7128;-63
2021/01/02 02:26:04;;;;;;;;;;;;;;;;;;2054461;28;7026;-62
2021/01/02 02:27:10;;;;;;;;;;;;;;;;;;2055375;28;7010;-61
2021/01/02 02:28:31;;;;;;;;;;;;;;;;;;2055182;28;8033;-62
2021/01/02 02:29:37;;;;;;;;;;;;;;;;;;2055842;28;7013;-63
2021/01/02 02:30:45;;;;;;;;;;;;;;;;;;2055830;28;7010;-63
2021/01/02 02:31:48;;;;;;;;;;;;;;;;;;2055769;28;7089;-62
2021/01/02 02:32:50;;;;;;;;;;;;;;;;;;2054388;28;7014;-62
2021/01/02 02:33:56;;;;;;;;;;;;;;;;;;2055415;28;7093;-63
2021/01/02 02:35:05;;;;;;;;;;;;;;;;;;2055400;28;7005;-64
2021/01/02 02:36:07;;;;;;;;;;;;;;;;;;2055136;28;8057;-64
2021/01/02 02:37:09;;;;;;;;;;;;;;;;;;2055278;28;7092;-63
2021/01/02 02:38:12;;;;;;;;;;;;;;;;;;2055001;28;7233;-63
2021/01/02 02:39:15;;;;;;;;;;;;;;;;;;2055450;28;7132;-63
2021/01/02 02:40:19;;;;;;;;;;;;;;;;;;2055398;28;7009;-62
2021/01/02 02:41:24;;;;;;;;;;;;;;;;;;2055142;28;9352;-63
2021/01/02 02:42:30;;;;;;;;;;;;;;;;;;2054031;28;7106;-63
2021/01/02 02:43:36;;;;;;;;;;;;;;;;;;2055657;28;7010;-61
2021/01/02 02:44:38;;;;;;;;;;;;;;;;;;2055083;28;7042;-63
2021/01/02 02:45:40;;;;;;;;;;;;;;;;;;2055271;28;7117;-62
2021/01/02 02:46:44;;;;;;;;;;;;;;;;;;2055495;28;7341;-61
2021/01/02 02:47:50;;;;;;;;;;;;;;;;;;2055313;28;7089;-62
2021/01/02 02:48:55;;;;;;;;;;;;;;;;;;2055069;28;7025;-64
2021/01/02 02:49:58;;;;;;;;;;;;;;;;;;2055609;28;8311;-61
2021/01/02 02:51:01;;;;;;;;;;;;;;;;;;2055148;28;7093;-61
2021/01/02 02:52:06;;;;;;;;;;;;;;;;;;2054982;28;7006;-62
2021/01/02 02:53:09;;;;;;;;;;;;;;;;;;2055461;28;7014;-64
2021/01/02 02:54:11;;;;;;;;;;;;;;;;;;2056024;28;8053;-63
2021/01/02 02:55:13;;;;;;;;;;;;;;;;;;2055628;28;7093;-61
2021/01/02 02:56:16;;;;;;;;;;;;;;;;;;2055450;28;7006;-64
2021/01/02 02:57:20;;;;;;;;;;;;;;;;;;2054932;28;7042;-62
2021/01/02 02:58:25;;;;;;;;;;;;;;;;;;2055136;28;7355;-64
2021/01/02 02:59:26;;;;;;;;;;;;;;;;;;2055066;28;7085;-64
2021/01/02 03:00:28;;;;;;;;;;;;;;;;;;2055207;28;7537;-62
2021/01/02 03:01:31;;;;;;;;;;;;;;;;;;2055053;28;7046;-61
2021/01/02 03:02:34;;;;;;;;;;;;;;;;;;2055370;28;7009;-62
2021/01/02 03:03:36;;;;;;;;;;;;;;;;;;2055020;28;7092;-62
2021/01/02 03:04:38;;;;;;;;;;;;;;;;;;2055117;28;7088;-62
2021/01/02 03:05:42;;;;;;;;;;;;;;;;;;2054577;28;7097;-61
2021/01/02 03:06:44;;;;;;;;;;;;;;;;;;2054167;28;7135;-62
2021/01/02 03:07:47;;;;;;;;;;;;;;;;;;2054751;28;8056;-63
2021/01/02 03:08:53;;;;;;;;;;;;;;;;;;2053541;28;7025;-63
2021/01/02 03:09:55;;;;;;;;;;;;;;;;;;2054536;28;7718;-62
2021/01/02 03:10:58;;;;;;;;;;;;;;;;;;2055452;28;7014;-62
2021/01/02 03:12:00;;;;;;;;;;;;;;;;;;2054919;28;7046;-64
2021/01/02 03:13:03;;;;;;;;;;;;;;;;;;2055020;28;7014;-64
2021/01/02 03:14:04;;;;;;;;;;;;;;;;;;2055053;28;7977;-63
2021/01/02 03:15:07;;;;;;;;;;;;;;;;;;2054152;28;8036;-62
2021/01/02 03:16:09;;;;;;;;;;;;;;;;;;2055505;28;7014;-63
2021/01/02 03:17:11;;;;;;;;;;;;;;;;;;2055099;28;7286;-60
2021/01/02 03:18:13;;;;;;;;;;;;;;;;;;2053814;28;7468;-62
2021/01/02 03:19:15;;;;;;;;;;;;;;;;;;2055233;28;7110;-63
2021/01/02 03:20:17;;;;;;;;;;;;;;;;;;2054551;28;7025;-62
2021/01/02 03:21:19;;;;;;;;;;;;;;;;;;2054461;28;7006;-62
2021/01/02 03:22:21;;;;;;;;;;;;;;;;;;2055041;28;7010;-63
2021/01/02 03:23:23;;;;;;;;;;;;;;;;;;2054871;28;7097;-62
2021/01/02 03:24:26;;;;;;;;;;;;;;;;;;2055305;28;8095;-63
2021/01/02 03:25:28;;;;;;;;;;;;;;;;;;2055710;28;7046;-63
2021/01/02 03:26:30;;;;;;;;;;;;;;;;;;2055484;28;7018;-62
2021/01/02 03:27:32;;;;;;;;;;;;;;;;;;2055062;28;7282;-61
2021/01/02 03:28:34;;;;;;;;;;;;;;;;;;2055035;28;7122;-60
2021/01/02 03:29:37;;;;;;;;;;;;;;;;;;2055026;28;7042;-62
2021/01/02 03:30:39;;;;;;;;;;;;;;;;;;2054887;28;7038;-62
2021/01/02 03:31:41;;;;;;;;;;;;;;;;;;2055087;28;7010;-64
2021/01/02 03:32:44;;;;;;;;;;;;;;;;;;2054876;28;7014;-62
2021/01/02 03:33:47;;;;;;;;;;;;;;;;;;2054930;28;7134;-64
2021/01/02 03:34:49;;;;;;;;;;;;;;;;;;2054546;28;7093;-63
2021/01/02 03:35:51;;;;;;;;;;;;;;;;;;2055156;28;8052;-62
2021/01/02 03:36:53;;;;;;;;;;;;;;;;;;2054780;28;7100;-62
2021/01/02 03:37:55;;;;;;;;;;;;;;;;;;2054779;28;7002;-63
2021/01/02 03:38:58;;;;;;;;;;;;;;;;;;2055167;28;7026;-64
2021/01/02 03:40:00;;;;;;;;;;;;;;;;;;2055616;28;7328;-63
2021/01/02 03:41:02;;;;;;;;;;;;;;;;;;2052622;28;7049;-63
2021/01/02 03:42:06;;;;;;;;;;;;;;;;;;2054977;28;7030;-63
2021/01/02 03:43:08;;;;;;;;;;;;;;;;;;2053730;28;7103;-63
2021/01/02 03:44:10;;;;;;;;;;;;;;;;;;2054738;28;7010;-61
2021/01/02 03:45:13;;;;;;;;;;;;;;;;;;2054945;28;7050;-64
2021/01/02 03:46:16;;;;;;;;;;;;;;;;;;2054959;28;7109;-63
2021/01/02 03:47:18;;;;;;;;;;;;;;;;;;2055138;28;7009;-63
2021/01/02 03:48:20;;;;;;;;;;;;;;;;;;2054872;28;7088;-62
2021/01/02 03:49:22;;;;;;;;;;;;;;;;;;2054732;28;7089;-61
2021/01/02 03:50:24;;;;;;;;;;;;;;;;;;2054674;28;7010;-61
2021/01/02 03:51:26;;;;;;;;;;;;;;;;;;2054612;28;7010;-63
2021/01/02 03:52:28;;;;;;;;;;;;;;;;;;2054774;28;8040;-60
2021/01/02 03:53:30;;;;;;;;;;;;;;;;;;2054846;28;7058;-63
2021/01/02 03:54:33;;;;;;;;;;;;;;;;;;2055635;28;7085;-63
2021/01/02 03:55:35;;;;;;;;;;;;;;;;;;2054184;28;7093;-63
2021/01/02 03:56:37;;;;;;;;;;;;;;;;;;2055313;28;7305;-63
2021/01/02 03:57:39;;;;;;;;;;;;;;;;;;2054791;28;7009;-64
2021/01/02 03:58:41;;;;;;;;;;;;;;;;;;2054797;28;8036;-62
2021/01/02 03:59:43;;;;;;;;;;;;;;;;;;2054872;28;7088;-63
2021/01/02 04:00:45;;;;;;;;;;;;;;;;;;2053955;28;7022;-63
2021/01/02 04:01:53;;;;;;;;;;;;;;;;;;2054354;28;7010;-63
2021/01/02 04:02:55;;;;;;;;;;;;;;;;;;2053417;28;7046;-62
2021/01/02 04:03:57;;;;;;;;;;;;;;;;;;2054066;28;7013;-62
2021/01/02 04:05:00;;;;;;;;;;;;;;;;;;2054458;28;7699;-62
2021/01/02 04:06:02;;;;;;;;;;;;;;;;;;2053788;28;7013;-62
2021/01/02 04:07:04;;;;;;;;;;;;;;;;;;2054618;28;7050;-63
2021/01/02 04:08:07;;;;;;;;;;;;;;;;;;2054479;28;7054;-61
2021/01/02 04:09:09;;;;;;;;;;;;;;;;;;2054505;28;7017;-63
2021/01/02 04:10:11;;;;;;;;;;;;;;;;;;2054778;28;7013;-61
2021/01/02 04:11:13;;;;;;;;;;;;;;;;;;2046300;28;7014;-61
2021/01/02 04:12:15;;;;;;;;;;;;;;;;;;2046622;28;7449;-62
2021/01/02 04:13:17;;;;;;;;;;;;;;;;;;2054879;28;7152;-62
2021/01/02 04:14:18;;;;;;;;;;;;;;;;;;2054530;28;7009;-62
2021/01/02 04:15:20;;;;;;;;;;;;;;;;;;2054729;28;7006;-62
2021/01/02 04:16:23;;;;;;;;;;;;;;;;;;2054715;28;7124;-63
2021/01/02 04:17:25;;;;;;;;;;;;;;;;;;2054569;28;7010;-62
2021/01/02 04:18:27;;;;;;;;;;;;;;;;;;2054602;28;8108;-62
2021/01/02 04:19:32;;;;;;;;;;;;;;;;;;2054739;28;7073;-61
2021/01/02 04:20:34;;;;;;;;;;;;;;;;;;2054558;28;7013;-61
2021/01/02 04:21:37;;;;;;;;;;;;;;;;;;2054613;28;7002;-63
2021/01/02 04:22:39;;;;;;;;;;;;;;;;;;2054361;28;7006;-62
2021/01/02 04:23:41;;;;;;;;;;;;;;;;;;2054888;28;7097;-61
2021/01/02 04:24:43;;;;;;;;;;;;;;;;;;2053973;28;7085;-61
2021/01/02 04:25:45;;;;;;;;;;;;;;;;;;2055653;28;7133;-64
2021/01/02 04:26:47;;;;;;;;;;;;;;;;;;2054774;28;7046;-62
2021/01/02 04:27:49;;;;;;;;;;;;;;;;;;2054816;28;7317;-62
2021/01/02 04:28:51;;;;;;;;;;;;;;;;;;2054620;28;8040;-61
2021/01/02 04:29:53;;;;;;;;;;;;;;;;;;2054588;28;7347;-62
2021/01/02 04:30:55;;;;;;;;;;;;;;;;;;2053589;28;7154;-63
2021/01/02 04:31:58;;;;;;;;;;;;;;;;;;2054915;28;7110;-62
2021/01/02 04:33:01;;;;;;;;;;;;;;;;;;2053474;28;7345;-63
2021/01/02 04:34:04;;;;;;;;;;;;;;;;;;2054568;28;7093;-63
2021/01/02 04:35:06;;;;;;;;;;;;;;;;;;2054668;28;7093;-64
2021/01/02 04:36:11;;;;;;;;;;;;;;;;;;2053980;28;7947;-63
2021/01/02 04:37:13;;;;;;;;;;;;;;;;;;2054856;28;8098;-63
2021/01/02 04:38:15;;;;;;;;;;;;;;;;;;2053858;28;7010;-64
2021/01/02 04:39:18;;;;;;;;;;;;;;;;;;2054576;28;7321;-64
2021/01/02 04:40:20;;;;;;;;;;;;;;;;;;2053654;28;7018;-61
2021/01/02 04:41:23;;;;;;;;;;;;;;;;;;2055108;28;7097;-61
2021/01/02 04:42:25;;;;;;;;;;;;;;;;;;2053584;28;7050;-61
2021/01/02 04:43:27;;;;;;;;;;;;;;;;;;2054366;28;7104;-62
2021/01/02 04:44:30;;;;;;;;;;;;;;;;;;2054761;28;7010;-63
2021/01/02 04:45:32;;;;;;;;;;;;;;;;;;2054398;28;7093;-63
2021/01/02 04:46:37;;;;;;;;;;;;;;;;;;2054410;28;7309;-63
2021/01/02 04:47:43;;;;;;;;;;;;;;;;;;2054281;28;7014;-63
2021/01/02 04:48:48;;;;;;;;;;;;;;;;;;2054597;28;7062;-62
2021/01/02 04:49:50;;;;;;;;;;;;;;;;;;2054561;28;7014;-62
2021/01/02 04:50:52;;;;;;;;;;;;;;;;;;2054824;28;7096;-62
2021/01/02 04:51:58;;;;;;;;;;;;;;;;;;2053495;28;7104;-63
2021/01/02 04:53:04;;;;;;;;;;;;;;;;;;2054465;28;7010;-61
2021/01/02 04:54:06;;;;;;;;;;;;;;;;;;2054456;28;7384;-62
2021/01/02 04:55:09;;;;;;;;;;;;;;;;;;2054608;28;7105;-62
2021/01/02 04:56:11;;;;;;;;;;;;;;;;;;2054350;28;7093;-62
2021/01/02 04:57:13;;;;;;;;;;;;;;;;;;2054816;28;7085;-63
2021/01/02 04:58:18;;;;;;;;;;;;;;;;;;2053514;28;7022;-62
2021/01/02 04:59:25;;;;;;;;;;;;;;;;;;2054868;28;7819;-61
2021/01/02 05:00:27;;;;;;;;;;;;;;;;;;2054487;28;7124;-63
2021/01/02 05:01:31;;;;;;;;;;;;;;;;;;2055204;28;7138;-63
2021/01/02 05:02:33;;;;;;;;;;;;;;;;;;2054163;28;7114;-62
2021/01/02 05:03:43;;;;;;;;;;;;;;;;;;2053984;28;7113;-63
2021/01/02 05:04:45;;;;;;;;;;;;;;;;;;2053431;28;7010;-62
2021/01/02 05:05:51;;;;;;;;;;;;;;;;;;2054010;28;7198;-62
2021/01/02 05:06:53;;;;;;;;;;;;;;;;;;2055733;28;7100;-62
2021/01/02 05:07:55;;;;;;;;;;;;;;;;;;2056292;28;8112;-62
2021/01/02 05:08:58;;;;;;;;;;;;;;;;;;2055856;28;7026;-63
2021/01/02 05:10:00;;;;;;;;;;;;;;;;;;2056338;28;7045;-63
2021/01/02 05:11:04;;;;;;;;;;;;;;;;;;2056195;28;7042;-64
2021/01/02 05:12:21;;;;;;;;;;;;;;;;;;2056305;28;7033;-63
2021/01/02 05:13:27;;;;;;;;;;;;;;;;;;2056088;28;7018;-63
2021/01/02 05:14:29;;;;;;;;;;;;;;;;;;2056142;28;7313;-62
2021/01/02 05:15:31;;;;;;;;;;;;;;;;;;2056066;28;8030;-63
2021/01/02 05:16:41;;;;;;;;;;;;;;;;;;2056029;28;7142;-63
2021/01/02 05:17:45;;;;;;;;;;;;;;;;;;2056393;28;7118;-62
2021/01/02 05:18:57;;;;;;;;;;;;;;;;;;2056208;28;7085;-62
2021/01/02 05:20:02;;;;;;;;;;;;;;;;;;2056257;28;7005;-62
2021/01/02 05:21:07;;;;;;;;;;;;;;;;;;2055890;28;7010;-62
2021/01/02 05:22:23;;;;;;;;;;;;;;;;;;2056320;28;7102;-63
2021/01/02 05:23:24;;;;;;;;;;;;;;;;;;2056108;28;7013;-63
2021/01/02 05:24:26;;;;;;;;;;;;;;;;;;2055947;28;8359;-61
2021/01/02 05:25:28;;;;;;;;;;;;;;;;;;2056386;28;7124;-61
2021/01/02 05:26:31;;;;;;;;;;;;;;;;;;2055043;28;7009;-63
2021/01/02 05:27:34;;;;;;;;;;;;;;;;;;2056287;28;7014;-64
2021/01/02 05:28:36;;;;;;;;;;;;;;;;;;2055377;28;7034;-63
2021/01/02 05:29:38;;;;;;;;;;;;;;;;;;2055689;28;7010;-64
2021/01/02 05:30:40;;;;;;;;;;;;;;;;;;2052634;28;7009;-62
2021/01/02 05:31:44;;;;;;;;;;;;;;;;;;2056377;28;7050;-61
2021/01/02 05:33:04;;;;;;;;;;;;;;;;;;2056562;28;7010;-63
2021/01/02 05:34:07;;;;;;;;;;;;;;;;;;2056289;28;7113;-62
2021/01/02 05:35:19;;;;;;;;;;;;;;;;;;2056047;28;7006;-63
2021/01/02 05:36:21;;;;;;;;;;;;;;;;;;2054750;28;7042;-63
2021/01/02 05:37:23;;;;;;;;;;;;;;;;;;2055739;28;9489;-61
2021/01/02 05:38:25;;;;;;;;;;;;;;;;;;2055989;28;7046;-64
2021/01/02 05:39:41;;;;;;;;;;;;;;;;;;2056047;28;7037;-64
2021/01/02 05:40:45;;;;;;;;;;;;;;;;;;2055276;28;7093;-62
2021/01/02 05:41:51;;;;;;;;;;;;;;;;;;2055912;28;7047;-62
2021/01/02 05:42:56;;;;;;;;;;;;;;;;;;2056388;28;7105;-63
2021/01/02 05:44:11;;;;;;;;;;;;;;;;;;2055276;28;7085;-64
2021/01/02 05:45:14;;;;;;;;;;;;;;;;;;2056484;28;8029;-64
2021/01/02 05:46:20;;;;;;;;;;;;;;;;;;2056064;28;7092;-62
2021/01/02 05:47:27;;;;;;;;;;;;;;;;;;2056106;28;7009;-63
2021/01/02 05:48:29;;;;;;;;;;;;;;;;;;2056134;28;7373;-63
2021/01/02 05:49:41;;;;;;;;;;;;;;;;;;2056587;28;7154;-63
2021/01/02 05:50:47;;;;;;;;;;;;;;;;;;2055708;28;7018;-63
2021/01/02 05:51:51;;;;;;;;;;;;;;;;;;2056007;28;7092;-63
2021/01/02 05:52:54;;;;;;;;;;;;;;;;;;2055966;28;7010;-63
2021/01/02 05:54:07;;;;;;;;;;;;;;;;;;2056221;28;7156;-62
2021/01/02 05:55:09;;;;;;;;;;;;;;;;;;2056127;28;7029;-62
2021/01/02 05:56:12;;;;;;;;;;;;;;;;;;2056295;28;7038;-62
2021/01/02 05:57:23;;;;;;;;;;;;;;;;;;2056499;28;7010;-63
2021/01/02 05:58:25;;;;;;;;;;;;;;;;;;2056719;28;7043;-63
2021/01/02 05:59:32;;;;;;;;;;;;;;;;;;2056100;28;7005;-62
2021/01/02 06:00:36;;;;;;;;;;;;;;;;;;2055991;28;7121;-62
2021/01/02 06:01:38;;;;;;;;;;;;;;;;;;2055880;28;7129;-64
2021/01/02 06:02:40;;;;;;;;;;;;;;;;;;2055800;28;7097;-62
2021/01/02 06:03:43;;;;;;;;;;;;;;;;;;2055630;28;7092;-64
2021/01/02 06:04:55;;;;;;;;;;;;;;;;;;2055333;28;7010;-63
2021/01/02 06:06:02;;;;;;;;;;;;;;;;;;2055534;28;8027;-63
2021/01/02 06:07:07;;;;;;;;;;;;;;;;;;2055251;28;8028;-62
2021/01/02 06:08:09;;;;;;;;;;;;;;;;;;2054386;28;7306;-60
2021/01/02 06:09:11;;;;;;;;;;;;;;;;;;2054567;28;7101;-61
2021/01/02 06:10:13;;;;;;;;;;;;;;;;;;2055510;28;7145;-62
2021/01/02 06:11:20;;;;;;;;;;;;;;;;;;2055049;28;8518;-61
2021/01/02 06:12:24;;;;;;;;;;;;;;;;;;2056059;28;7114;-61
2021/01/02 06:13:27;;;;;;;;;;;;;;;;;;2055626;28;7029;-63
2021/01/02 06:14:32;;;;;;;;;;;;;;;;;;2054680;28;7014;-62
2021/01/02 06:15:34;;;;;;;;;;;;;;;;;;2055488;28;7154;-62
2021/01/02 06:16:45;;;;;;;;;;;;;;;;;;2055868;28;8081;-64
2021/01/02 06:17:47;;;;;;;;;;;;;;;;;;2054142;28;7014;-64
2021/01/02 06:18:49;;;;;;;;;;;;;;;;;;2055510;28;7009;-61
2021/01/02 06:19:51;;;;;;;;;;;;;;;;;;2055727;28;8039;-64
2021/01/02 06:20:56;;;;;;;;;;;;;;;;;;2055656;28;7039;-62
2021/01/02 06:21:59;;;;;;;;;;;;;;;;;;2055043;28;7014;-64
2021/01/02 06:23:01;;;;;;;;;;;;;;;;;;2056197;28;7160;-63
2021/01/02 06:24:03;;;;;;;;;;;;;;;;;;2056064;28;7164;-63
2021/01/02 06:25:05;;;;;;;;;;;;;;;;;;2055646;28;7013;-61
2021/01/02 06:26:09;;;;;;;;;;;;;;;;;;2055682;28;7088;-62
2021/01/02 06:27:11;;;;;;;;;;;;;;;;;;2055872;28;7088;-63
2021/01/02 06:28:15;;;;;;;;;;;;;;;;;;2055434;28;7050;-62
2021/01/02 06:29:17;;;;;;;;;;;;;;;;;;2055693;28;7009;-62
2021/01/02 06:30:19;;;;;;;;;;;;;;;;;;2055196;28;7096;-61
2021/01/02 06:31:22;;;;;;;;;;;;;;;;;;2055670;28;7136;-62
2021/01/02 06:32:26;;;;;;;;;;;;;;;;;;2055344;28;7006;-63
2021/01/02 06:33:28;;;;;;;;;;;;;;;;;;2055527;28;8076;-63
2021/01/02 06:34:30;;;;;;;;;;;;;;;;;;2055518;28;7092;-63
2021/01/02 06:35:39;;;;;;;;;;;;;;;;;;2055335;28;7026;-63
2021/01/02 06:36:41;;;;;;;;;;;;;;;;;;2054075;28;7337;-64
2021/01/02 06:37:49;;;;;;;;;;;;;;;;;;2055700;28;7131;-63
2021/01/02 06:39:11;;;;;;;;;;;;;;;;;;2055911;28;7092;-62
2021/01/02 06:40:23;;;;;;;;;;;;;;;;;;2055534;28;7018;-62
2021/01/02 06:41:28;;;;;;;;;;;;;;;;;;2055417;28;7093;-62
2021/01/02 06:42:31;;;;;;;;;;;;;;;;;;2047108;28;9321;-62
2021/01/02 06:43:39;;;;;;;;;;;;;;;;;;2047204;28;7010;-62
2021/01/02 06:44:45;;;;;;;;;;;;;;;;;;2055350;28;7051;-62
2021/01/02 06:45:51;;;;;;;;;;;;;;;;;;2055539;28;7139;-63
2021/01/02 06:47:11;;;;;;;;;;;;;;;;;;2055610;28;7490;-64
2021/01/02 06:48:16;;;;;;;;;;;;;;;;;;2055127;28;7102;-64
2021/01/02 06:49:33;;;;;;;;;;;;;;;;;;2055309;28;8092;-63
2021/01/02 06:50:35;;;;;;;;;;;;;;;;;;2055202;28;7022;-63
2021/01/02 06:51:37;;;;;;;;;;;;;;;;;;2055353;28;7046;-62
2021/01/02 06:52:39;;;;;;;;;;;;;;;;;;2055073;28;7093;-61
2021/01/02 06:53:41;;;;;;;;;;;;;;;;;;2055071;28;8040;-62
2021/01/02 06:54:42;;;;;;;;;;;;;;;;;;2055167;28;7009;-63
2021/01/02 06:55:45;;;;;;;;;;;;;;;;;;2055572;28;7136;-63
2021/01/02 06:56:47;;;;;;;;;;;;;;;;;;2055309;28;7022;-62
2021/01/02 06:57:50;;;;;;;;;;;;;;;;;;2055352;28;7373;-64
2021/01/02 06:58:52;;;;;;;;;;;;;;;;;;2053877;28;8036;-62
2021/01/02 07:00:13;;;;;;;;;;;;;;;;;;2055518;28;7139;-61
2021/01/02 07:01:15;;;;;;;;;;;;;;;;;;2054957;28;7010;-63
2021/01/02 07:02:32;;;;;;;;;;;;;;;;;;2055435;28;7025;-63
2021/01/02 07:03:40;;;;;;;;;;;;;;;;;;2055292;28;7097;-62
2021/01/02 07:04:42;;;;;;;;;;;;;;;;;;2055266;28;7088;-63
2021/01/02 07:05:48;;;;;;;;;;;;;;;;;;2055189;28;7046;-62
2021/01/02 07:06:50;;;;;;;;;;;;;;;;;;2054541;28;7353;-63
2021/01/02 07:07:52;;;;;;;;;;;;;;;;;;2054419;28;7324;-61
2021/01/02 07:08:59;;;;;;;;;;;;;;;;;;2055211;28;7058;-61
2021/01/02 07:10:15;;;;;;;;;;;;;;;;;;2055604;28;7018;-63
2021/01/02 07:11:22;;;;;;;;;;;;;;;;;;2055019;28;7350;-64
2021/01/02 07:12:31;;;;;;;;;;;;;;;;;;2055405;28;7103;-61
2021/01/02 07:13:33;;;;;;;;;;;;;;;;;;2055309;28;7009;-63
2021/01/02 07:14:35;;;;;;;;;;;;;;;;;;2054296;28;7010;-62
2021/01/02 07:15:37;;;;;;;;;;;;;;;;;;2053929;28;7010;-61
2021/01/02 07:16:45;;;;;;;;;;;;;;;;;;2055353;28;7086;-61
2021/01/02 07:17:47;;;;;;;;;;;;;;;;;;2055929;28;7062;-63
2021/01/02 07:18:49;;;;;;;;;;;;;;;;;;2056004;28;7097;-62
2021/01/02 07:19:51;;;;;;;;;;;;;;;;;;2054706;28;7116;-63
2021/01/02 07:20:53;;;;;;;;;;;;;;;;;;2055356;28;7093;-63
2021/01/02 07:21:55;;;;;;;;;;;;;;;;;;2054768;28;7046;-63
2021/01/02 07:22:59;;;;;;;;;;;;;;;;;;2055293;28;7093;-61
2021/01/02 07:24:20;;;;;;;;;;;;;;;;;;2054657;28;7013;-62
2021/01/02 07:25:23;;;;;;;;;;;;;;;;;;2055592;28;7171;-62
2021/01/02 07:26:25;;;;;;;;;;;;;;;;;;2053754;28;8154;-63
2021/01/02 07:27:30;;;;;;;;;;;;;;;;;;2054755;28;7014;-62
2021/01/02 07:28:32;;;;;;;;;;;;;;;;;;2053951;28;7017;-63
2021/01/02 07:29:35;;;;;;;;;;;;;;;;;;2055094;28;7062;-62
2021/01/02 07:30:37;;;;;;;;;;;;;;;;;;2054798;28;7082;-64
2021/01/02 07:31:39;;;;;;;;;;;;;;;;;;2055176;28;7297;-61
2021/01/02 07:32:42;;;;;;;;;;;;;;;;;;2055266;28;7058;-63
2021/01/02 07:33:44;;;;;;;;;;;;;;;;;;2054993;28;7361;-63
2021/01/02 07:35:06;;;;;;;;;;;;;;;;;;2055118;28;7114;-61
2021/01/02 07:36:18;;;;;;;;;;;;;;;;;;2054270;28;7058;-62